createdAt,value
2023-11-27T00:01:40.408Z,3.92
2023-11-27T00:04:12.924Z,3.75
2023-11-27T00:06:41.503Z,4.80
2023-11-27T00:09:09.894Z,5.13
2023-11-27T00:11:39.151Z,4.10
2023-11-27T00:14:07.897Z,4.05
2023-11-27T00:16:39.476Z,3.80
2023-11-27T00:19:11.115Z,4.60
2023-11-27T00:21:41.949Z,4.10
2023-11-27T00:24:10.703Z,4.70
2023-11-27T00:26:41.931Z,4.65
2023-11-27T00:29:10.815Z,4.82
2023-11-27T00:31:39.091Z,4.30
2023-11-27T00:34:07.688Z,4.07
2023-11-27T00:36:37.831Z,5.32
2023-11-27T00:39:10.541Z,4.88
2023-11-27T00:41:39.189Z,5.30
2023-11-27T00:44:07.927Z,4.57
2023-11-27T00:46:36.466Z,4.43
2023-11-27T00:49:06.120Z,4.50
2023-11-27T00:51:34.766Z,4.05
2023-11-27T00:54:05.460Z,4.22
2023-11-27T00:56:35.443Z,3.97
2023-11-27T00:59:05.200Z,4.20
2023-11-27T01:01:35.655Z,4.60
2023-11-27T01:04:03.961Z,4.55
2023-11-27T01:06:32.327Z,4.00
2023-11-27T01:09:00.889Z,4.28
2023-11-27T01:11:30.667Z,4.47
2023-11-27T01:13:58.748Z,4.07
2023-11-27T01:16:27.798Z,3.60
2023-11-27T01:19:00.607Z,3.38
2023-11-27T01:21:29.322Z,4.38
2023-11-27T01:23:58.948Z,2.80
2023-11-27T01:26:27.776Z,3.38
2023-11-27T01:29:00.067Z,3.10
2023-11-27T01:31:28.791Z,3.75
2023-11-27T01:33:57.644Z,3.10
2023-11-27T01:36:28.992Z,3.90
2023-11-27T01:39:00.654Z,3.85
2023-11-27T01:41:29.035Z,3.42
2023-11-27T01:43:58.730Z,3.47
2023-11-27T01:46:28.471Z,3.10
2023-11-27T01:49:01.460Z,2.70
2023-11-27T01:51:32.091Z,3.28
2023-11-27T01:54:03.738Z,4.00
2023-11-27T01:56:35.861Z,3.17
2023-11-27T01:59:06.485Z,3.80
2023-11-27T02:01:35.702Z,4.10
2023-11-27T02:04:05.106Z,4.20
2023-11-27T02:06:33.285Z,4.15
2023-11-27T02:09:02.172Z,3.90
2023-11-27T02:11:30.895Z,3.75
2023-11-27T02:13:59.916Z,3.80
2023-11-27T02:16:29.679Z,3.67
2023-11-27T02:18:59.564Z,4.15
2023-11-27T02:21:28.279Z,3.97
2023-11-27T02:23:58.578Z,4.18
2023-11-27T02:26:26.885Z,3.97
2023-11-27T02:28:57.356Z,5.40
2023-11-27T02:31:28.842Z,4.10
2023-11-27T02:33:57.882Z,4.47
2023-11-27T02:36:38.219Z,4.20
2023-11-27T02:39:08.783Z,5.03
2023-11-27T02:41:41.046Z,4.43
2023-11-27T02:44:12.412Z,4.35
2023-11-27T02:46:40.872Z,4.38
2023-11-27T02:49:09.545Z,4.57
2023-11-27T02:51:41.249Z,4.30
2023-11-27T02:54:12.559Z,3.92
2023-11-27T02:56:40.857Z,4.45
2023-11-27T02:59:09.842Z,4.00
2023-11-27T03:01:38.445Z,4.40
2023-11-27T03:04:07.375Z,4.25
2023-11-27T03:06:35.770Z,4.88
2023-11-27T03:09:07.410Z,4.13
2023-11-27T03:11:37.068Z,4.20
2023-11-27T03:14:07.749Z,4.25
2023-11-27T03:16:39.521Z,3.92
2023-11-27T03:19:12.892Z,4.70
2023-11-27T03:21:41.673Z,4.63
2023-11-27T03:24:11.374Z,4.60
2023-11-27T03:26:41.356Z,5.00
2023-11-27T03:29:09.721Z,4.22
2023-11-27T03:31:40.690Z,5.38
2023-11-27T03:34:09.848Z,4.18
2023-11-27T03:36:43.001Z,5.13
2023-11-27T03:39:18.401Z,5.35
2023-11-27T03:41:48.729Z,4.97
2023-11-27T03:44:17.249Z,6.13
2023-11-27T03:46:48.720Z,5.25
2023-11-27T03:49:23.440Z,5.65
2023-11-27T03:51:54.092Z,4.85
2023-11-27T03:54:25.866Z,4.93
2023-11-27T03:56:55.626Z,5.18
2023-11-27T03:59:28.823Z,5.43
2023-11-27T04:02:03.943Z,5.47
2023-11-27T04:04:35.190Z,5.40
2023-11-27T04:07:06.951Z,6.53
2023-11-27T04:09:44.063Z,5.03
2023-11-27T04:12:19.730Z,5.90
2023-11-27T04:14:51.197Z,5.88
2023-11-27T04:17:22.999Z,5.90
2023-11-27T04:19:58.972Z,7.03
2023-11-27T04:22:30.549Z,5.90
2023-11-27T04:25:02.873Z,5.50
2023-11-27T04:27:37.982Z,5.72
2023-11-27T04:30:07.555Z,5.90
2023-11-27T04:32:36.221Z,4.90
2023-11-27T04:35:12.898Z,5.90
2023-11-27T04:37:43.635Z,6.15
2023-11-27T04:40:16.573Z,6.45
2023-11-27T04:42:46.228Z,6.20
2023-11-27T04:45:19.511Z,5.88
2023-11-27T04:47:48.091Z,7.13
2023-11-27T04:50:17.439Z,7.25
2023-11-27T04:52:55.697Z,6.57
2023-11-27T04:55:24.891Z,5.93
2023-11-27T04:57:54.506Z,6.47
2023-11-27T05:00:23.229Z,6.65
2023-11-27T05:02:54.504Z,7.70
2023-11-27T05:05:25.984Z,7.03
2023-11-27T05:07:53.953Z,7.28
2023-11-27T05:10:23.126Z,7.97
2023-11-27T05:12:51.522Z,8.23
2023-11-27T05:15:21.880Z,7.07
2023-11-27T05:17:52.436Z,8.55
2023-11-27T05:20:27.811Z,7.72
2023-11-27T05:22:55.874Z,8.45
2023-11-27T05:25:24.266Z,7.07
2023-11-27T05:27:52.768Z,7.90
2023-11-27T05:30:23.798Z,7.80
2023-11-27T05:32:53.398Z,8.00
2023-11-27T05:35:32.639Z,8.20
2023-11-27T05:38:04.624Z,9.05
2023-11-27T05:40:33.835Z,8.82
2023-11-27T05:43:06.872Z,8.45
2023-11-27T05:45:36.646Z,8.60
2023-11-27T05:48:11.915Z,9.07
2023-11-27T05:50:43.094Z,11.32
2023-11-27T05:53:11.590Z,7.15
2023-11-27T05:55:42.117Z,8.45
2023-11-27T05:58:20.771Z,66.07
2023-11-27T06:00:59.533Z,12.05
2023-11-27T06:03:40.795Z,8.93
2023-11-27T06:06:15.372Z,8.85
2023-11-27T06:09:05.910Z,8.65
2023-11-27T06:11:37.440Z,8.90
2023-11-27T06:14:08.648Z,8.02
2023-11-27T06:16:40.180Z,6.85
2023-11-27T06:19:17.545Z,7.38
2023-11-27T06:21:46.545Z,7.78
2023-11-27T06:24:20.073Z,9.02
2023-11-27T06:26:59.150Z,8.32
2023-11-27T06:29:30.239Z,8.32
2023-11-27T06:32:00.129Z,9.55
2023-11-27T06:34:41.149Z,9.23
2023-11-27T06:37:12.817Z,9.10
2023-11-27T06:39:52.301Z,8.48
2023-11-27T06:42:28.952Z,8.48
2023-11-27T06:44:57.470Z,9.25
2023-11-27T06:47:27.389Z,8.93
2023-11-27T06:49:58.152Z,9.20
2023-11-27T06:52:27.332Z,8.80
2023-11-27T06:55:09.992Z,9.20
2023-11-27T06:57:38.097Z,7.97
2023-11-27T07:00:11.814Z,9.30
2023-11-27T07:02:42.367Z,8.45
2023-11-27T07:05:17.763Z,6.78
2023-11-27T07:07:47.208Z,4.55
2023-11-27T07:10:20.544Z,8.07
2023-11-27T07:12:53.264Z,8.30
2023-11-27T07:15:26.050Z,8.45
2023-11-27T07:18:09.526Z,7.68
2023-11-27T07:20:47.889Z,8.25
2023-11-27T07:23:21.564Z,8.55
2023-11-27T07:25:54.673Z,7.85
2023-11-27T07:28:28.365Z,7.95
2023-11-27T07:30:57.706Z,8.25
2023-11-27T07:33:32.060Z,7.93
2023-11-27T07:36:01.882Z,7.50
2023-11-27T07:38:32.684Z,7.35
2023-11-27T07:41:02.568Z,7.25
2023-11-27T07:43:37.303Z,8.23
2023-11-27T07:46:07.892Z,7.28
2023-11-27T07:48:38.217Z,8.25
2023-11-27T07:51:13.323Z,7.63
2023-11-27T07:53:41.775Z,9.20
2023-11-27T07:56:13.653Z,9.30
2023-11-27T07:58:42.894Z,8.55
2023-11-27T08:01:18.132Z,6.53
2023-11-27T08:03:52.277Z,9.15
2023-11-27T08:06:20.678Z,8.45
2023-11-27T08:08:51.370Z,7.70
2023-11-27T08:11:33.411Z,8.35
2023-11-27T08:14:04.588Z,6.72
2023-11-27T08:16:36.568Z,6.25
2023-11-27T08:19:06.463Z,7.85
2023-11-27T08:21:36.428Z,7.60
2023-11-27T08:24:07.550Z,6.40
2023-11-27T08:26:40.785Z,8.23
2023-11-27T08:29:09.485Z,8.55
2023-11-27T08:31:38.704Z,6.15
2023-11-27T08:34:10.402Z,8.05
2023-11-27T08:36:39.809Z,8.48
2023-11-27T08:39:12.043Z,8.57
2023-11-27T08:41:42.333Z,5.22
2023-11-27T08:44:10.596Z,8.15
2023-11-27T08:46:41.225Z,7.03
2023-11-27T08:49:11.999Z,5.68
2023-11-27T08:51:45.030Z,6.43
2023-11-27T08:54:13.453Z,5.80
2023-11-27T08:56:42.871Z,6.60
2023-11-27T08:59:14.188Z,6.72
2023-11-27T09:01:43.037Z,6.28
2023-11-27T09:04:13.132Z,6.80
2023-11-27T09:06:41.993Z,7.13
2023-11-27T09:09:10.821Z,6.50
2023-11-27T09:11:41.559Z,6.35
2023-11-27T09:14:10.142Z,8.10
2023-11-27T09:16:38.941Z,7.55
2023-11-27T09:19:08.394Z,7.20
2023-11-27T09:21:38.145Z,8.95
2023-11-27T09:24:07.573Z,4.68
2023-11-27T09:26:36.468Z,7.20
2023-11-27T09:29:08.122Z,7.18
2023-11-27T09:31:37.387Z,7.22
2023-11-27T09:34:06.515Z,7.32
2023-11-27T09:36:35.608Z,7.45
2023-11-27T09:39:07.675Z,0.00
2023-11-27T09:41:37.000Z,0.10
2023-11-27T09:44:05.921Z,0.00
2023-11-27T09:46:36.401Z,0.00
2023-11-27T09:49:10.265Z,0.10
2023-11-27T09:51:41.209Z,0.00
2023-11-27T09:54:14.995Z,0.00
2023-11-27T09:56:45.600Z,0.25
2023-11-27T09:59:17.179Z,0.00
2023-11-27T10:01:52.568Z,0.00
2023-11-27T10:04:23.057Z,0.10
2023-11-27T10:06:53.266Z,0.00
2023-11-27T10:09:23.526Z,0.00
2023-11-27T10:11:53.074Z,0.20
2023-11-27T10:14:36.965Z,0.45
2023-11-27T10:19:43.049Z,0.38
2023-11-27T10:22:13.421Z,0.30
2023-11-27T10:24:47.199Z,0.08
2023-11-27T10:27:15.385Z,0.10
2023-11-27T10:29:44.132Z,0.10
2023-11-27T10:32:13.890Z,0.03
2023-11-27T10:34:48.700Z,0.10
2023-11-27T10:37:17.680Z,0.00
2023-11-27T10:39:51.678Z,0.05
2023-11-27T10:42:22.620Z,0.08
2023-11-27T10:44:52.039Z,0.00
2023-11-27T10:47:21.621Z,0.32
2023-11-27T10:49:53.390Z,0.10
2023-11-27T10:52:23.371Z,0.10
2023-11-27T10:55:00.408Z,0.73
2023-11-27T10:57:33.602Z,0.10
2023-11-27T11:00:02.271Z,0.10
2023-11-27T11:02:30.715Z,0.55
2023-11-27T11:05:01.532Z,0.00
2023-11-27T11:07:35.769Z,0.10
2023-11-27T11:10:10.538Z,0.10
2023-11-27T11:12:42.247Z,0.10
2023-11-27T11:15:18.124Z,0.90
2023-11-27T11:17:56.818Z,0.00
2023-11-27T11:20:34.180Z,0.10
2023-11-27T11:23:16.440Z,0.08
2023-11-27T11:25:55.255Z,1.10
2023-11-27T11:28:29.880Z,0.00
2023-11-27T11:31:11.138Z,0.00
2023-11-27T11:33:39.786Z,2.40
2023-11-27T11:36:13.895Z,0.03
2023-11-27T11:38:47.016Z,0.13
2023-11-27T11:41:18.629Z,0.35
2023-11-27T11:43:49.094Z,0.10
2023-11-27T11:46:18.355Z,0.30
2023-11-27T11:48:56.808Z,0.00
2023-11-27T11:51:27.088Z,0.00
2023-11-27T11:53:55.626Z,0.10
2023-11-27T11:56:30.238Z,0.00
2023-11-27T11:59:02.315Z,0.10
2023-11-27T12:01:34.250Z,1.08
2023-11-27T12:04:09.597Z,0.00
2023-11-27T12:06:45.266Z,1.00
2023-11-27T12:09:16.854Z,0.00
2023-11-27T12:11:49.074Z,0.05
2023-11-27T12:14:19.941Z,0.00
2023-11-27T12:16:49.052Z,0.00
2023-11-27T12:19:20.314Z,0.00
2023-11-27T12:21:49.238Z,0.00
2023-11-27T12:24:19.648Z,0.20
2023-11-27T12:26:53.511Z,0.20
2023-11-27T12:29:24.496Z,0.32
2023-11-27T12:31:58.499Z,0.00
2023-11-27T12:34:27.562Z,0.00
2023-11-27T12:36:57.533Z,0.00
2023-11-27T12:39:28.956Z,0.00
2023-11-27T12:42:15.186Z,0.40
2023-11-27T12:44:50.346Z,0.20
2023-11-27T12:49:57.107Z,0.00
2023-11-27T12:52:27.650Z,1.17
2023-11-27T12:54:59.758Z,0.00
2023-11-27T12:57:34.500Z,0.08
2023-11-27T13:00:02.777Z,0.00
2023-11-27T13:02:44.147Z,0.05
2023-11-27T13:05:15.057Z,0.00
2023-11-27T13:07:44.852Z,0.30
2023-11-27T13:10:13.785Z,0.00
2023-11-27T13:12:50.044Z,0.10
2023-11-27T13:15:25.489Z,0.08
2023-11-27T13:17:55.623Z,0.00
2023-11-27T13:20:26.438Z,0.10
2023-11-27T13:22:55.405Z,0.00
2023-11-27T13:25:27.935Z,0.00
2023-11-27T13:27:57.466Z,0.00
2023-11-27T13:30:30.057Z,0.00
2023-11-27T13:33:00.627Z,0.00
2023-11-27T13:35:33.745Z,2.22
2023-11-27T13:38:07.372Z,0.10
2023-11-27T13:40:39.177Z,0.00
2023-11-27T13:43:14.900Z,0.03
2023-11-27T13:45:46.577Z,0.10
2023-11-27T13:48:24.655Z,0.13
2023-11-27T13:50:58.308Z,0.00
2023-11-27T13:53:27.835Z,0.00
2023-11-27T13:55:57.456Z,0.00
2023-11-27T13:58:28.400Z,0.10
2023-11-27T14:01:02.196Z,0.15
2023-11-27T14:03:33.885Z,0.00
2023-11-27T14:06:16.978Z,0.20
2023-11-27T14:08:52.801Z,0.20
2023-11-27T14:11:32.514Z,0.00
2023-11-27T14:14:07.348Z,0.30
2023-11-27T14:16:45.454Z,0.00
2023-11-27T14:19:47.459Z,0.08
2023-11-27T14:22:34.125Z,0.10
2023-11-27T14:25:22.758Z,0.05
2023-11-27T14:28:11.164Z,0.10
2023-11-27T14:30:43.361Z,0.10
2023-11-27T14:33:12.960Z,0.00
2023-11-27T14:35:48.732Z,0.00
2023-11-27T14:38:21.941Z,0.00
2023-11-27T14:40:50.856Z,0.10
2023-11-27T14:43:23.303Z,0.20
2023-11-27T14:45:54.054Z,0.10
2023-11-27T14:48:31.772Z,7.50
2023-11-27T14:51:01.391Z,7.63
2023-11-27T14:53:30.500Z,9.25
2023-11-27T14:56:00.736Z,9.73
2023-11-27T14:58:29.510Z,11.65
2023-11-27T15:01:09.082Z,9.15
2023-11-27T15:03:45.520Z,11.38
2023-11-27T15:06:14.345Z,10.77
2023-11-27T15:08:42.524Z,12.05
2023-11-27T15:11:12.268Z,9.55
2023-11-27T15:13:45.548Z,12.10
2023-11-27T15:16:18.165Z,10.30
2023-11-27T15:18:50.481Z,11.57
2023-11-27T15:21:25.857Z,12.38
2023-11-27T15:26:24.186Z,12.98
2023-11-27T15:28:53.587Z,12.13
2023-11-27T15:31:26.438Z,13.32
2023-11-27T15:33:59.225Z,15.23
2023-11-27T15:36:30.932Z,15.00
2023-11-27T15:39:01.322Z,16.15
2023-11-27T15:41:33.089Z,12.82
2023-11-27T15:44:05.605Z,15.52
2023-11-27T15:46:38.786Z,15.60
2023-11-27T15:49:07.568Z,12.80
2023-11-27T15:51:37.377Z,15.98
2023-11-27T15:54:18.044Z,13.50
2023-11-27T15:56:46.847Z,14.57
2023-11-27T15:59:15.926Z,16.42
2023-11-27T16:01:46.687Z,46.65
2023-11-27T16:04:16.236Z,21.17
2023-11-27T16:06:44.802Z,17.10
2023-11-27T16:09:17.876Z,16.13
2023-11-27T16:11:46.869Z,16.98
2023-11-27T16:14:18.465Z,17.48
2023-11-27T16:16:52.743Z,15.93
2023-11-27T16:19:22.294Z,18.33
2023-11-27T16:21:54.555Z,16.75
2023-11-27T16:24:26.621Z,17.80
2023-11-27T16:26:57.336Z,17.10
2023-11-27T16:29:30.243Z,17.20
2023-11-27T16:32:01.065Z,16.83
2023-11-27T16:34:31.358Z,13.65
2023-11-27T16:37:03.048Z,15.80
2023-11-27T16:39:32.680Z,14.82
2023-11-27T16:42:05.481Z,13.93
2023-11-27T16:44:34.445Z,9.18
2023-11-27T16:47:17.828Z,0.00
2023-11-27T16:52:17.587Z,0.90
2023-11-27T16:54:51.031Z,0.08
2023-11-27T16:57:21.595Z,0.25
2023-11-27T16:59:51.871Z,0.00
2023-11-27T17:02:24.690Z,6.13
2023-11-27T17:04:54.178Z,0.05
2023-11-27T17:07:26.271Z,0.10
2023-11-27T17:09:57.166Z,0.22
2023-11-27T17:12:26.438Z,0.17
2023-11-27T17:14:55.740Z,0.00
2023-11-27T17:17:27.078Z,1.65
2023-11-27T17:19:56.072Z,0.00
2023-11-27T17:22:24.557Z,0.10
2023-11-27T17:24:54.557Z,0.00
2023-11-27T17:27:22.481Z,0.05
2023-11-27T17:29:50.484Z,0.00
2023-11-27T17:32:18.787Z,0.10
2023-11-27T17:34:49.020Z,0.20
2023-11-27T17:37:19.587Z,0.10
2023-11-27T17:39:47.764Z,0.00
2023-11-27T17:42:15.673Z,0.10
2023-11-27T17:44:43.634Z,0.00
2023-11-27T17:47:12.667Z,0.08
2023-11-27T17:49:41.889Z,0.15
2023-11-27T17:52:12.604Z,0.00
2023-11-27T17:54:41.137Z,0.20
2023-11-27T17:57:09.400Z,0.00
2023-11-27T17:59:37.551Z,0.65
2023-11-27T18:02:07.023Z,0.30
2023-11-27T18:04:35.205Z,0.10
2023-11-27T18:07:05.040Z,0.47
2023-11-27T18:09:34.400Z,0.10
2023-11-27T18:12:02.550Z,0.00
2023-11-27T18:14:30.804Z,0.00
2023-11-27T18:17:00.573Z,0.22
2023-11-27T18:19:29.534Z,0.00
2023-11-27T18:21:58.474Z,0.10
2023-11-27T18:24:27.032Z,0.10
2023-11-27T18:26:57.318Z,0.10
2023-11-27T18:29:26.159Z,0.17
2023-11-27T18:31:54.358Z,0.00
2023-11-27T18:34:22.933Z,1.10
2023-11-27T18:36:52.472Z,0.45
2023-11-27T18:39:27.243Z,0.00
2023-11-27T18:41:58.213Z,0.10
2023-11-27T18:44:27.121Z,0.20
2023-11-27T18:46:55.962Z,0.00
2023-11-27T18:49:27.183Z,0.10
2023-11-27T18:51:58.232Z,0.10
2023-11-27T18:54:27.155Z,0.75
2023-11-27T18:56:57.649Z,0.10
2023-11-27T18:59:26.111Z,0.10
2023-11-27T19:01:55.569Z,0.00
2023-11-27T19:04:24.136Z,0.10
2023-11-27T19:06:52.200Z,0.03
2023-11-27T19:09:22.252Z,0.10
2023-11-27T19:11:51.205Z,0.00
2023-11-27T19:14:23.162Z,0.00
2023-11-27T19:16:51.507Z,0.45
2023-11-27T19:19:20.061Z,0.00
2023-11-27T19:21:50.080Z,0.10
2023-11-27T19:24:18.208Z,0.00
2023-11-27T19:26:46.246Z,0.10
2023-11-27T19:29:14.440Z,0.08
2023-11-27T19:31:43.990Z,0.00
2023-11-27T19:34:14.442Z,0.00
2023-11-27T19:36:44.173Z,0.00
2023-11-27T19:39:18.838Z,0.50
2023-11-27T19:41:53.982Z,0.10
2023-11-27T19:46:57.686Z,0.00
2023-11-27T19:49:27.326Z,0.10
2023-11-27T19:51:57.410Z,0.00
2023-11-27T19:54:27.851Z,0.00
2023-11-27T19:56:56.233Z,0.00
2023-11-27T19:59:28.554Z,1.00
2023-11-27T20:01:58.041Z,0.08
2023-11-27T20:04:26.388Z,0.10
2023-11-27T20:06:54.895Z,0.10
2023-11-27T20:09:23.018Z,0.10
2023-11-27T20:11:52.952Z,0.10
2023-11-27T20:14:21.122Z,0.00
2023-11-27T20:16:50.138Z,0.00
2023-11-27T20:19:20.811Z,0.10
2023-11-27T20:21:49.825Z,0.10
2023-11-27T20:24:18.296Z,0.00
2023-11-27T20:26:46.451Z,0.00
2023-11-27T20:29:14.835Z,0.03
2023-11-27T20:31:43.080Z,0.00
2023-11-27T20:34:12.100Z,0.10
2023-11-27T20:36:43.185Z,0.98
2023-11-27T20:39:12.835Z,0.00
2023-11-27T20:41:43.713Z,0.20
2023-11-27T20:44:12.045Z,0.40
2023-11-27T20:46:41.299Z,0.10
2023-11-27T20:49:12.235Z,0.20
2023-11-27T20:51:41.647Z,0.00
2023-11-27T20:54:10.565Z,0.10
2023-11-27T20:56:38.661Z,0.10
2023-11-27T20:59:06.557Z,0.03
2023-11-27T21:01:36.000Z,0.05
2023-11-27T21:04:04.338Z,0.00
2023-11-27T21:06:33.037Z,0.10
2023-11-27T21:09:03.425Z,0.00
2023-11-27T21:11:31.424Z,0.00
2023-11-27T21:13:59.772Z,0.03
2023-11-27T21:16:27.895Z,0.10
2023-11-27T21:18:56.090Z,0.28
2023-11-27T21:21:26.528Z,0.00
2023-11-27T21:23:55.251Z,0.05
2023-11-27T21:26:25.771Z,0.00
2023-11-27T21:28:55.193Z,0.10
2023-11-27T21:31:24.585Z,0.00
2023-11-27T21:33:55.256Z,0.00
2023-11-27T21:36:29.537Z,0.00
2023-11-27T21:38:57.896Z,0.00
2023-11-27T21:41:30.605Z,0.10
2023-11-27T21:43:58.809Z,0.10
2023-11-27T21:46:28.031Z,0.00
2023-11-27T21:48:57.553Z,0.25
2023-11-27T21:51:27.522Z,0.10
2023-11-27T21:53:56.391Z,0.05
2023-11-27T21:56:24.599Z,0.13
2023-11-27T21:58:54.270Z,0.00
2023-11-27T22:01:23.007Z,0.00
2023-11-27T22:03:51.446Z,0.10
2023-11-27T22:06:20.097Z,0.00
2023-11-27T22:08:48.291Z,0.17
2023-11-27T22:11:18.552Z,0.90
2023-11-27T22:13:46.946Z,0.00
2023-11-27T22:16:17.399Z,0.50
2023-11-27T22:18:46.563Z,0.10
2023-11-27T22:21:14.809Z,0.20
2023-11-27T22:23:42.781Z,0.20
2023-11-27T22:26:12.003Z,0.10
2023-11-27T22:28:41.525Z,0.00
2023-11-27T22:31:21.543Z,0.00
2023-11-27T22:33:49.934Z,0.00
2023-11-27T22:36:19.257Z,0.47
2023-11-27T22:38:47.193Z,0.10
2023-11-27T22:41:15.244Z,0.57
2023-11-27T22:43:43.911Z,0.00
2023-11-27T22:46:12.507Z,0.00
2023-11-27T22:48:41.848Z,0.00
2023-11-27T22:51:10.232Z,0.00
2023-11-27T22:53:42.860Z,0.20
2023-11-27T22:56:17.931Z,0.03
2023-11-27T23:01:14.358Z,0.13
2023-11-27T23:03:44.244Z,0.10
2023-11-27T23:06:25.170Z,0.28
2023-11-27T23:09:00.724Z,0.00
2023-11-27T23:11:28.911Z,0.10
2023-11-27T23:13:57.359Z,0.10
2023-11-27T23:16:26.123Z,0.00
2023-11-27T23:18:55.722Z,0.10
2023-11-27T23:21:23.655Z,2.22
2023-11-27T23:23:51.912Z,0.00
2023-11-27T23:26:23.597Z,0.20
2023-11-27T23:28:52.536Z,0.10
2023-11-27T23:31:23.762Z,0.10
2023-11-27T23:33:51.919Z,0.20
2023-11-27T23:36:22.044Z,0.08
2023-11-27T23:38:50.061Z,0.08
2023-11-27T23:41:18.032Z,0.03
2023-11-27T23:43:52.262Z,0.10
2023-11-27T23:46:20.819Z,0.73
2023-11-27T23:48:53.365Z,0.10
2023-11-27T23:51:28.021Z,0.22
2023-11-27T23:53:57.692Z,0.17
2023-11-27T23:56:26.184Z,0.30
2023-11-27T23:58:55.190Z,0.10
